Time;durP1;ratioP1;P1;durP2;ratioP2;P2;SDS_P1;SDS_P2;PMS_P1;PMS_P2;Temp;Humidity;BMP_temperature;BMP_pressure;BME280_temperature;BME280_humidity;BME280_pressure;Samples;Min_cycle;Max_cycle;Signal;HPM_P1;HPM_P2
2023/04/23 00:02:10;;;;;;;38.05;33.95;;;10.50;99.90;;;;;;5081357;28;20069;-74
2023/04/23 00:04:37;;;;;;;37.00;33.00;;;10.50;99.90;;;;;;5079187;28;20040;-73
2023/04/23 00:07:03;;;;;;;39.53;35.22;;;10.50;99.90;;;;;;5061888;28;20154;-74
2023/04/23 00:09:33;;;;;;;37.78;33.72;;;10.50;99.90;;;;;;5083508;28;20078;-74
2023/04/23 00:12:00;;;;;;;38.10;33.75;;;10.50;99.90;;;;;;5058512;28;20158;-73
2023/04/23 00:14:27;;;;;;;38.38;33.42;;;10.50;99.90;;;;;;5064489;28;20032;-74
2023/04/23 00:16:52;;;;;;;39.45;34.95;;;10.40;99.90;;;;;;5081244;28;20060;-74
2023/04/23 00:19:19;;;;;;;39.97;35.42;;;10.40;99.90;;;;;;5084546;28;20143;-74
2023/04/23 00:21:45;;;;;;;40.28;35.90;;;10.40;99.90;;;;;;5079943;28;20040;-74
2023/04/23 00:24:11;;;;;;;40.72;36.42;;;10.40;99.90;;;;;;5085733;28;20047;-73
2023/04/23 00:26:36;;;;;;;41.78;36.50;;;10.30;99.90;;;;;;5084261;28;20028;-73
2023/04/23 00:29:02;;;;;;;40.50;36.10;;;10.30;99.90;;;;;;5081837;28;20066;-73
2023/04/23 00:31:28;;;;;;;39.83;35.60;;;10.30;99.90;;;;;;5065727;28;20040;-74
2023/04/23 00:33:54;;;;;;;40.95;36.45;;;10.30;99.90;;;;;;5085490;28;20036;-73
2023/04/23 00:36:20;;;;;;;38.87;34.60;;;10.30;99.90;;;;;;5087876;28;20109;-73
2023/04/23 00:38:46;;;;;;;38.75;33.83;;;10.20;99.90;;;;;;5086830;28;20135;-74
2023/04/23 00:41:13;;;;;;;39.03;34.47;;;10.20;99.90;;;;;;5085048;28;20050;-73
2023/04/23 00:43:39;;;;;;;39.83;35.53;;;10.10;99.90;;;;;;5079082;28;20082;-74
2023/04/23 00:46:05;;;;;;;38.28;34.17;;;10.10;99.90;;;;;;5085079;28;20101;-74
2023/04/23 00:48:32;;;;;;;37.17;33.00;;;10.10;99.90;;;;;;5085644;28;20043;-73
2023/04/23 00:51:05;;;;;;;39.85;35.28;;;10.10;99.90;;;;;;5076455;28;20420;-74
2023/04/23 00:53:32;;;;;;;38.63;34.47;;;10.10;99.90;;;;;;5079972;28;20031;-73
2023/04/23 00:56:00;;;;;;;38.72;34.53;;;10.00;99.90;;;;;;5072715;28;20051;-73
2023/04/23 00:58:27;;;;;;;38.47;34.28;;;10.00;99.90;;;;;;5081713;28;20623;-73
2023/04/23 01:00:52;;;;;;;40.25;35.38;;;10.00;99.90;;;;;;5077472;28;21145;-73
2023/04/23 01:03:20;;;;;;;41.60;37.15;;;10.00;99.90;;;;;;5080055;28;20055;-73
2023/04/23 01:05:47;;;;;;;41.50;36.00;;;10.00;99.90;;;;;;5079176;28;20028;-72
2023/04/23 01:08:15;;;;;;;42.38;37.47;;;9.90;99.90;;;;;;5083576;28;20494;-73
2023/04/23 01:10:44;;;;;;;;;;;9.90;99.90;;;;;;5081555;28;20596;-74
2023/04/23 01:13:14;;;;;;;44.25;39.50;;;9.90;99.90;;;;;;5080989;28;19928;-74
2023/04/23 01:15:40;;;;;;;46.85;39.65;;;9.80;99.90;;;;;;5077961;28;20043;-74
2023/04/23 01:18:09;;;;;;;47.70;42.13;;;9.90;99.90;;;;;;5064700;28;20127;-73
2023/04/23 01:20:38;;;;;;;45.88;40.88;;;9.90;99.90;;;;;;5079577;28;20131;-73
2023/04/23 01:23:04;;;;;;;52.10;42.80;;;9.80;99.90;;;;;;5081210;28;20131;-73
2023/04/23 01:25:30;;;;;;;50.72;43.20;;;9.80;99.90;;;;;;5077496;28;20595;-74
2023/04/23 01:27:57;;;;;;;51.72;44.63;;;9.80;99.90;;;;;;5080567;28;20040;-73
2023/04/23 01:30:25;;;;;;;51.40;45.80;;;9.80;99.90;;;;;;5073460;28;20185;-74
2023/04/23 01:32:53;;;;;;;52.90;46.55;;;9.80;99.90;;;;;;5073722;28;20043;-74
2023/04/23 01:35:21;;;;;;;51.55;44.70;;;9.80;99.90;;;;;;5068066;28;20048;-73
2023/04/23 01:37:51;;;;;;;54.03;46.35;;;9.80;99.90;;;;;;5081166;28;20126;-73
2023/04/23 01:40:18;;;;;;;53.78;46.53;;;9.80;99.90;;;;;;5083140;28;20157;-74
2023/04/23 01:42:43;;;;;;;51.78;46.10;;;9.80;99.90;;;;;;5083367;28;20383;-73
2023/04/23 01:45:09;;;;;;;55.17;47.97;;;9.70;99.90;;;;;;5083809;28;20046;-73
2023/04/23 01:47:35;;;;;;;55.53;48.15;;;9.70;99.90;;;;;;5078990;28;20445;-74
2023/04/23 01:50:03;;;;;;;57.50;48.28;;;9.80;99.90;;;;;;5084880;28;20036;-74
2023/04/23 01:52:28;;;;;;;;;;;9.70;99.90;;;;;;5080878;28;20406;-73
2023/04/23 01:54:54;;;;;;;60.50;48.13;;;9.70;99.90;;;;;;5086419;28;20011;-75
2023/04/23 01:57:23;;;;;;;57.05;47.50;;;9.70;99.90;;;;;;5087622;28;20047;-74
2023/04/23 01:59:49;;;;;;;57.58;48.65;;;9.70;99.90;;;;;;5082346;28;20102;-73
2023/04/23 02:02:15;;;;;;;56.78;49.38;;;9.70;99.90;;;;;;5083682;28;20139;-74
2023/04/23 02:04:43;;;;;;;59.28;49.58;;;9.60;99.90;;;;;;5084100;28;20051;-74
2023/04/23 02:07:09;;;;;;;58.75;50.30;;;9.70;99.90;;;;;;5081671;28;20560;-74
2023/04/23 02:09:38;;;;;;;58.50;50.53;;;9.60;99.90;;;;;;5079399;28;20119;-73
2023/04/23 02:12:04;;;;;;;60.58;50.38;;;9.60;99.90;;;;;;5076547;28;20059;-74
2023/04/23 02:14:32;;;;;;;63.40;51.65;;;9.60;99.90;;;;;;5083945;28;20036;-74
2023/04/23 02:16:58;;;;;;;60.78;51.45;;;9.60;99.90;;;;;;5083598;28;20048;-74
2023/04/23 02:19:24;;;;;;;60.55;50.78;;;9.60;99.90;;;;;;5081879;28;20044;-74
2023/04/23 02:21:49;;;;;;;60.35;51.42;;;9.60;99.90;;;;;;5083378;28;20048;-73
2023/04/23 02:24:15;;;;;;;64.30;53.25;;;9.60;99.90;;;;;;5101180;28;20517;-73
2023/04/23 02:26:40;;;;;;;61.60;53.72;;;9.60;99.90;;;;;;5084923;28;20072;-74
2023/04/23 02:29:06;;;;;;;68.20;53.55;;;9.50;99.90;;;;;;5080654;28;20135;-74
2023/04/23 02:31:32;;;;;;;69.05;56.80;;;9.60;99.90;;;;;;5082383;28;20494;-73
2023/04/23 02:33:57;;;;;;;74.97;57.33;;;9.60;99.90;;;;;;5086874;28;20038;-73
2023/04/23 02:36:23;;;;;;;71.38;56.72;;;9.60;99.90;;;;;;5086561;28;20048;-73
2023/04/23 02:38:50;;;;;;;67.88;53.25;;;9.60;99.90;;;;;;5080517;28;20036;-72
2023/04/23 02:41:16;;;;;;;67.43;53.72;;;9.60;99.90;;;;;;5080622;28;20475;-73
2023/04/23 02:43:44;;;;;;;64.82;53.58;;;9.50;99.90;;;;;;5071662;28;20051;-74
2023/04/23 02:46:13;;;;;;;67.68;54.97;;;9.50;99.90;;;;;;5084834;28;20077;-74
2023/04/23 02:48:40;;;;;;;69.65;57.10;;;9.50;99.90;;;;;;5084934;28;20117;-74
2023/04/23 02:51:11;;;;;;;73.68;58.75;;;9.50;99.90;;;;;;5085778;28;20028;-73
2023/04/23 02:53:36;;;;;;;68.65;56.95;;;9.50;99.90;;;;;;5088069;28;20137;-73
2023/04/23 02:56:02;;;;;;;73.95;56.65;;;9.50;99.90;;;;;;5086029;28;20115;-73
2023/04/23 02:58:28;;;;;;;71.30;57.28;;;9.50;99.90;;;;;;5084426;28;20070;-74
2023/04/23 03:00:57;;;;;;;66.70;54.95;;;9.50;99.90;;;;;;5092666;28;20044;-74
2023/04/23 03:03:25;;;;;;;72.75;59.53;;;9.50;99.90;;;;;;5068335;28;20431;-74
2023/04/23 03:05:51;;;;;;;72.85;56.25;;;9.50;99.90;;;;;;5089403;28;20040;-73
2023/04/23 03:08:20;;;;;;;68.22;55.97;;;9.40;99.90;;;;;;5069975;28;20036;-74
2023/04/23 03:10:45;;;;;;;70.05;54.85;;;9.50;99.90;;;;;;5086301;28;20681;-73
2023/04/23 03:13:17;;;;;;;72.40;59.20;;;9.40;99.90;;;;;;5082590;28;20046;-74
2023/04/23 03:15:43;;;;;;;69.18;55.78;;;9.40;99.90;;;;;;5081069;28;20043;-74
2023/04/23 03:18:08;;;;;;;73.70;58.05;;;9.40;99.90;;;;;;5063849;28;20518;-74
2023/04/23 03:20:35;;;;;;;74.55;59.65;;;9.40;99.90;;;;;;5086281;28;20600;-72
2023/04/23 03:23:01;;;;;;;73.10;59.43;;;9.30;99.90;;;;;;5086023;28;20040;-73
2023/04/23 03:25:26;;;;;;;80.60;59.22;;;9.30;99.90;;;;;;5096758;28;20043;-74
2023/04/23 03:27:52;;;;;;;73.10;56.25;;;9.30;99.90;;;;;;5083948;28;22069;-73
2023/04/23 03:30:19;;;;;;;73.47;59.22;;;9.30;99.90;;;;;;5080280;28;20040;-73
2023/04/23 03:32:45;;;;;;;75.50;59.43;;;9.30;99.90;;;;;;5084986;28;20033;-73
2023/04/23 03:35:10;;;;;;;73.93;56.97;;;9.20;99.90;;;;;;5083582;28;20051;-73
2023/04/23 03:37:36;;;;;;;76.35;62.13;;;9.20;99.90;;;;;;5059400;28;20044;-73
2023/04/23 03:40:06;;;;;;;77.80;60.60;;;9.20;99.90;;;;;;5087484;28;20036;-74
2023/04/23 03:42:32;;;;;;;75.00;60.17;;;9.10;99.90;;;;;;5085123;28;20131;-74
2023/04/23 03:44:59;;;;;;;80.90;63.95;;;9.20;99.90;;;;;;5082002;28;20052;-74
2023/04/23 03:47:25;;;;;;;78.10;59.78;;;9.10;99.90;;;;;;5080322;28;20480;-73
2023/04/23 03:49:51;;;;;;;80.93;61.28;;;9.20;99.90;;;;;;5076497;28;20101;-74
2023/04/23 03:52:20;;;;;;;79.22;61.10;;;9.20;99.90;;;;;;5083169;28;20617;-74
2023/04/23 03:54:46;;;;;;;82.10;62.85;;;9.20;99.90;;;;;;5097737;28;20048;-73
2023/04/23 03:57:11;;;;;;;85.65;65.35;;;9.20;99.90;;;;;;5078316;28;20493;-74
2023/04/23 03:59:37;;;;;;;82.70;63.80;;;9.10;99.90;;;;;;5074345;28;20119;-73
2023/04/23 04:02:03;;;;;;;92.75;70.53;;;9.20;99.90;;;;;;5096243;28;20163;-73
2023/04/23 04:04:32;;;;;;;84.45;67.43;;;9.20;99.90;;;;;;5078703;28;20051;-74
2023/04/23 04:07:01;;;;;;;88.82;66.88;;;9.20;99.90;;;;;;5081121;28;20043;-74
2023/04/23 04:09:27;;;;;;;84.28;64.65;;;9.30;99.90;;;;;;5079044;28;20064;-73
2023/04/23 04:12:03;;;;;;;83.78;67.50;;;9.20;99.90;;;;;;5066722;28;20372;-74
2023/04/23 04:14:29;;;;;;;87.05;66.28;;;9.30;99.90;;;;;;5081983;28;20070;-73
2023/04/23 04:16:55;;;;;;;82.97;66.53;;;9.30;99.90;;;;;;5067691;28;20067;-73
2023/04/23 04:19:21;;;;;;;94.13;71.25;;;9.30;99.90;;;;;;5079377;28;20104;-74
2023/04/23 04:21:47;;;;;;;93.90;68.38;;;9.30;99.90;;;;;;5091869;28;20097;-73
2023/04/23 04:24:13;;;;;;;92.95;70.57;;;9.20;99.90;;;;;;5070904;28;20456;-74
2023/04/23 04:26:44;;;;;;;92.95;71.05;;;9.30;99.90;;;;;;5081977;28;20052;-74
2023/04/23 04:29:10;;;;;;;90.40;69.35;;;9.30;99.90;;;;;;5086361;28;20032;-73
2023/04/23 04:31:38;;;;;;;92.15;69.22;;;9.30;99.90;;;;;;5066959;28;20447;-75
2023/04/23 04:34:06;;;;;;;85.03;66.25;;;9.30;99.90;;;;;;5078295;28;20734;-73
2023/04/23 04:36:31;;;;;;;86.68;68.45;;;9.30;99.90;;;;;;5079892;28;20050;-73
2023/04/23 04:39:02;;;;;;;91.88;67.38;;;9.30;99.90;;;;;;5076443;28;20040;-74
2023/04/23 04:41:27;;;;;;;92.90;71.93;;;9.30;99.90;;;;;;5080962;28;21793;-73
2023/04/23 04:43:53;;;;;;;90.22;68.50;;;9.30;99.90;;;;;;5059805;28;20096;-72
2023/04/23 04:46:20;;;;;;;92.28;69.07;;;9.30;99.90;;;;;;5101766;28;20048;-74
2023/04/23 04:48:49;;;;;;;92.30;69.80;;;9.30;99.90;;;;;;5083818;28;20044;-73
2023/04/23 04:51:15;;;;;;;94.85;69.20;;;9.30;99.90;;;;;;5097327;28;20612;-73
2023/04/23 04:53:43;;;;;;;88.63;68.28;;;9.40;99.90;;;;;;5060763;28;20138;-73
2023/04/23 04:56:09;;;;;;;88.78;68.15;;;9.30;99.90;;;;;;5083508;28;20100;-73
2023/04/23 04:58:35;;;;;;;89.25;68.68;;;9.30;99.90;;;;;;5078872;28;20436;-73
2023/04/23 05:01:01;;;;;;;90.65;68.95;;;9.30;99.90;;;;;;5083974;28;20048;-74
2023/04/23 05:03:27;;;;;;;92.95;70.32;;;9.30;99.90;;;;;;5081663;28;20040;-73
2023/04/23 05:05:57;;;;;;;93.65;68.68;;;9.40;99.90;;;;;;5082877;28;20105;-73
2023/04/23 05:08:24;;;;;;;91.05;71.18;;;9.30;99.90;;;;;;5061187;28;22524;-75
2023/04/23 05:10:49;;;;;;;97.35;70.88;;;9.40;99.90;;;;;;5074635;28;20051;-73
2023/04/23 05:13:16;;;;;;;94.93;72.85;;;9.40;99.90;;;;;;5083982;28;20036;-75
2023/04/23 05:15:41;;;;;;;94.57;70.70;;;9.50;99.90;;;;;;5084050;28;20036;-73
2023/04/23 05:18:12;;;;;;;98.65;72.47;;;9.60;99.90;;;;;;5060470;28;20047;-74
2023/04/23 05:20:38;;;;;;;98.35;73.38;;;9.60;99.90;;;;;;5080903;28;20739;-73
2023/04/23 05:23:04;;;;;;;91.65;70.68;;;9.60;99.90;;;;;;5087034;28;20040;-74
2023/04/23 05:25:30;;;;;;;93.50;72.63;;;9.60;99.90;;;;;;5081601;28;20031;-73
2023/04/23 05:27:56;;;;;;;93.85;70.75;;;9.60;99.90;;;;;;5089201;28;20088;-74
2023/04/23 05:30:23;;;;;;;97.28;70.50;;;9.70;99.90;;;;;;5082982;28;21846;-73
2023/04/23 05:32:49;;;;;;;96.03;71.43;;;9.70;99.90;;;;;;5078814;28;20040;-74
2023/04/23 05:35:15;;;;;;;90.15;70.72;;;9.70;99.90;;;;;;5080012;28;20086;-74
2023/04/23 05:37:43;;;;;;;95.68;71.40;;;9.80;99.90;;;;;;5086238;28;20376;-74
2023/04/23 05:40:17;;;;;;;93.90;72.60;;;9.80;99.90;;;;;;5089850;28;20043;-73
2023/04/23 05:42:42;;;;;;;92.28;71.35;;;9.80;99.90;;;;;;5089606;28;20055;-74
2023/04/23 05:45:08;;;;;;;92.75;71.00;;;9.90;99.90;;;;;;5081096;28;20064;-74
2023/04/23 05:47:34;;;;;;;92.40;70.13;;;9.90;99.90;;;;;;5079539;28;20074;-74
2023/04/23 05:50:01;;;;;;;90.80;69.28;;;10.00;99.90;;;;;;5083511;28;20032;-74
2023/04/23 05:52:30;;;;;;;99.15;71.82;;;10.00;99.90;;;;;;5075829;28;20380;-73
2023/04/23 05:54:55;;;;;;;87.57;69.68;;;10.00;99.90;;;;;;5083248;28;20051;-74
2023/04/23 05:57:21;;;;;;;94.82;70.93;;;10.00;99.90;;;;;;5084657;28;20036;-73
2023/04/23 05:59:47;;;;;;;88.70;68.18;;;10.00;99.90;;;;;;5082911;28;20097;-73
2023/04/23 06:02:13;;;;;;;86.70;68.13;;;10.00;99.90;;;;;;5065277;28;20403;-74
2023/04/23 06:04:38;;;;;;;90.57;68.63;;;10.00;99.90;;;;;;5080705;28;20040;-73
2023/04/23 06:07:05;;;;;;;86.90;66.63;;;10.00;99.90;;;;;;5086739;28;20040;-73
2023/04/23 06:09:30;;;;;;;91.57;68.18;;;10.00;99.90;;;;;;5086893;28;20070;-74
2023/04/23 06:11:56;;;;;;;89.00;66.95;;;10.10;99.90;;;;;;5079669;28;20045;-74
2023/04/23 06:14:22;;;;;;;87.13;65.07;;;10.10;99.90;;;;;;5086227;28;20469;-73
2023/04/23 06:16:47;;;;;;;87.90;66.47;;;10.10;99.90;;;;;;5070490;28;21629;-73
2023/04/23 06:19:13;;;;;;;88.00;66.10;;;10.20;99.90;;;;;;5078421;28;21075;-73
2023/04/23 06:21:39;;;;;;;86.72;66.15;;;10.20;99.90;;;;;;5085689;28;20479;-72
2023/04/23 06:24:06;;;;;;;86.00;65.53;;;10.30;99.90;;;;;;5082354;28;20036;-74
2023/04/23 06:26:32;;;;;;;81.15;62.00;;;10.30;99.90;;;;;;5083802;28;20052;-73
2023/04/23 06:28:58;;;;;;;82.47;63.38;;;10.40;99.90;;;;;;5087917;28;20043;-72
2023/04/23 06:31:24;;;;;;;84.78;62.92;;;10.50;99.90;;;;;;5082448;28;20116;-73
2023/04/23 06:33:50;;;;;;;77.53;60.45;;;10.50;99.90;;;;;;5087541;28;20101;-73
2023/04/23 06:36:15;;;;;;;81.38;59.85;;;10.60;99.90;;;;;;5080289;28;20032;-76
2023/04/23 06:38:41;;;;;;;78.13;59.33;;;10.70;99.90;;;;;;5070333;28;20079;-76
2023/04/23 06:41:06;;;;;;;77.75;60.50;;;10.80;99.90;;;;;;5083326;28;20036;-75
2023/04/23 06:43:33;;;;;;;77.32;59.20;;;10.90;99.90;;;;;;5067662;28;20048;-76
2023/04/23 06:45:59;;;;;;;75.57;59.60;;;11.00;99.90;;;;;;5086074;28;20036;-72
2023/04/23 06:48:25;;;;;;;76.22;59.13;;;11.00;99.90;;;;;;5083798;28;20036;-74
2023/04/23 06:50:50;;;;;;;74.40;57.88;;;11.10;99.90;;;;;;5083857;28;20105;-75
2023/04/23 06:53:16;;;;;;;75.13;57.65;;;11.10;99.90;;;;;;5085715;28;20066;-75
2023/04/23 06:55:42;;;;;;;72.28;56.08;;;11.30;99.90;;;;;;5085721;28;20635;-77
2023/04/23 06:58:08;;;;;;;66.63;54.55;;;11.30;99.90;;;;;;5066937;28;20032;-75
2023/04/23 07:00:34;;;;;;;69.20;55.35;;;11.40;99.90;;;;;;5080687;28;20105;-76
2023/04/23 07:03:00;;;;;;;67.80;52.47;;;11.50;99.90;;;;;;5078524;28;20051;-77
2023/04/23 07:05:26;;;;;;;69.35;55.63;;;11.50;99.90;;;;;;5084291;28;20097;-77
2023/04/23 07:07:52;;;;;;;65.93;53.13;;;11.60;99.90;;;;;;5083721;28;20039;-78
2023/04/23 07:10:20;;;;;;;67.18;53.35;;;11.70;99.90;;;;;;5065135;28;20070;-77
2023/04/23 07:12:47;;;;;;;62.15;51.38;;;11.70;99.90;;;;;;5059453;28;20676;-77
2023/04/23 07:15:13;;;;;;;65.43;53.00;;;11.80;99.90;;;;;;5086886;28;20453;-74
2023/04/23 07:17:39;;;;;;;64.13;51.20;;;11.80;99.90;;;;;;5082754;28;20864;-74
2023/04/23 07:20:05;;;;;;;63.40;51.35;;;11.80;99.90;;;;;;5085941;28;20063;-76
2023/04/23 07:22:31;;;;;;;61.50;50.65;;;11.90;99.90;;;;;;5083560;28;20036;-77
2023/04/23 07:24:57;;;;;;;59.15;48.65;;;12.00;99.90;;;;;;5085766;28;20530;-77
2023/04/23 07:27:23;;;;;;;62.03;51.70;;;12.00;99.90;;;;;;5084373;28;20040;-72
2023/04/23 07:29:49;;;;;;;61.85;49.70;;;12.10;99.90;;;;;;5067331;28;20044;-75
2023/04/23 07:32:15;;;;;;;57.35;49.50;;;12.20;99.90;;;;;;5082331;28;20063;-75
2023/04/23 07:34:41;;;;;;;58.45;48.20;;;12.30;99.90;;;;;;5096870;27;20044;-75
2023/04/23 07:37:07;;;;;;;55.47;45.15;;;12.30;99.90;;;;;;5076121;28;20048;-73
2023/04/23 07:39:33;;;;;;;49.85;44.20;;;12.40;99.90;;;;;;5086565;28;20458;-75
2023/04/23 07:41:59;;;;;;;51.33;44.45;;;12.40;99.90;;;;;;5087064;28;20241;-75
2023/04/23 07:44:27;;;;;;;50.50;43.25;;;12.50;99.90;;;;;;5084423;28;20043;-74
2023/04/23 07:46:53;;;;;;;48.08;41.42;;;12.50;99.90;;;;;;5077971;28;20098;-75
2023/04/23 07:49:18;;;;;;;47.45;40.83;;;12.40;99.90;;;;;;5076743;28;20090;-74
2023/04/23 07:51:44;;;;;;;48.13;42.05;;;12.40;99.90;;;;;;5080327;28;20725;-75
2023/04/23 07:54:10;;;;;;;46.00;40.60;;;12.40;99.90;;;;;;5082309;28;20050;-74
2023/04/23 07:56:36;;;;;;;49.80;42.45;;;12.40;99.90;;;;;;5077662;28;20044;-75
2023/04/23 07:59:03;;;;;;;51.33;42.17;;;12.40;99.90;;;;;;5060360;28;20093;-75
2023/04/23 08:01:29;;;;;;;47.50;40.83;;;12.40;99.90;;;;;;5053588;28;20060;-74
2023/04/23 08:03:56;;;;;;;47.95;40.40;;;12.40;99.90;;;;;;5075498;28;20826;-74
2023/04/23 08:06:26;;;;;;;49.63;41.35;;;12.40;99.90;;;;;;5063087;28;20049;-74
2023/04/23 08:08:52;;;;;;;44.72;39.83;;;12.40;99.90;;;;;;5092004;27;20479;-75
2023/04/23 08:11:21;;;;;;;45.03;39.25;;;12.40;99.90;;;;;;5044105;28;20391;-74
2023/04/23 08:13:47;;;;;;;42.42;37.85;;;12.40;99.90;;;;;;5085894;28;20036;-74
2023/04/23 08:16:13;;;;;;;42.13;37.53;;;12.40;99.90;;;;;;5081379;28;20127;-74
2023/04/23 08:18:38;;;;;;;39.08;34.85;;;12.50;99.90;;;;;;5052762;28;20067;-74
2023/04/23 08:21:05;;;;;;;39.65;35.35;;;12.50;99.90;;;;;;5080634;28;20036;-74
2023/04/23 08:23:30;;;;;;;41.47;35.72;;;12.60;99.90;;;;;;5065541;28;20048;-74
2023/04/23 08:25:56;;;;;;;41.15;35.15;;;12.70;99.90;;;;;;5086051;28;20237;-74
2023/04/23 08:28:28;;;;;;;39.05;33.83;;;12.80;99.90;;;;;;5065323;28;20044;-74
2023/04/23 08:30:54;;;;;;;37.20;32.83;;;12.90;99.90;;;;;;5077458;28;20044;-74
2023/04/23 08:33:20;;;;;;;36.15;32.25;;;13.10;99.90;;;;;;5058010;28;20082;-74
2023/04/23 08:35:48;;;;;;;37.25;33.30;;;13.20;99.90;;;;;;5077793;28;20738;-74
2023/04/23 08:38:14;;;;;;;35.63;31.83;;;13.30;99.90;;;;;;5076962;28;20040;-74
2023/04/23 08:40:41;;;;;;;36.17;32.20;;;13.40;99.90;;;;;;5081965;28;20558;-75
2023/04/23 08:43:14;;;;;;;35.03;31.35;;;13.50;99.90;;;;;;5085854;28;20043;-73
2023/04/23 08:45:41;;;;;;;34.45;30.75;;;13.60;99.90;;;;;;5076444;28;20040;-74
2023/04/23 08:48:09;;;;;;;34.30;29.60;;;13.70;99.90;;;;;;5073466;28;20133;-74
2023/04/23 08:50:37;;;;;;;33.28;29.70;;;13.70;99.90;;;;;;5075265;28;20051;-74
2023/04/23 08:53:07;;;;;;;32.83;29.30;;;13.80;99.90;;;;;;5081859;28;20047;-74
2023/04/23 08:55:36;;;;;;;30.52;27.25;;;13.90;99.90;;;;;;5078354;28;20044;-74
2023/04/23 08:58:05;;;;;;;30.23;27.02;;;14.00;99.90;;;;;;5081079;28;20037;-74
2023/04/23 09:00:33;;;;;;;31.63;27.75;;;14.10;99.90;;;;;;5077703;28;20028;-75
2023/04/23 09:03:00;;;;;;;27.75;24.80;;;14.20;99.90;;;;;;5078590;28;20513;-73
2023/04/23 09:05:26;;;;;;;28.20;24.90;;;14.20;99.90;;;;;;5085416;28;20056;-74
2023/04/23 09:07:53;;;;;;;26.90;24.13;;;14.40;99.90;;;;;;5053078;28;20049;-73
2023/04/23 09:10:23;;;;;;;25.70;22.90;;;14.50;99.90;;;;;;5071638;28;20079;-75
2023/04/23 09:12:48;;;;;;;26.05;23.25;;;14.50;99.90;;;;;;5080605;28;20298;-73
2023/04/23 09:15:15;;;;;;;23.88;21.38;;;14.60;99.90;;;;;;5085285;28;20043;-74
2023/04/23 09:17:43;;;;;;;24.15;21.75;;;14.70;99.90;;;;;;5081401;28;20050;-75
2023/04/23 09:20:11;;;;;;;22.48;20.05;;;14.80;99.90;;;;;;5087468;28;20066;-72
2023/04/23 09:22:39;;;;;;;22.77;20.48;;;14.90;99.90;;;;;;5085432;28;20071;-77
2023/04/23 09:25:06;;;;;;;23.10;20.58;;;14.90;99.90;;;;;;5080732;28;20077;-76
2023/04/23 09:27:32;;;;;;;22.65;19.98;;;15.00;99.90;;;;;;5064836;28;20048;-79
2023/04/23 09:30:02;;;;;;;18.80;16.90;;;15.00;99.90;;;;;;5078224;28;20038;-75
2023/04/23 09:32:32;;;;;;;21.25;18.83;;;15.10;99.90;;;;;;5067268;28;20044;-75
2023/04/23 09:34:58;;;;;;;20.48;18.38;;;15.20;99.90;;;;;;5082127;28;20036;-76
2023/04/23 09:37:47;;;;;;;16.90;15.10;;;15.30;99.90;;;;;;5080894;28;20047;-74
2023/04/23 09:40:13;;;;;;;18.23;16.23;;;15.30;99.90;;;;;;5075926;28;20080;-75
2023/04/23 09:42:39;;;;;;;17.00;15.15;;;15.50;99.90;;;;;;5069248;28;20552;-76
2023/04/23 09:45:11;;;;;;;16.80;15.00;;;15.50;99.90;;;;;;5064051;28;20082;-76
2023/04/23 09:48:07;;;;;;;16.48;14.35;;;15.50;99.90;;;;;;5057025;28;20043;-77
2023/04/23 09:50:34;;;;;;;15.48;13.80;;;15.50;99.90;;;;;;5066402;28;20097;-76
2023/04/23 09:53:00;;;;;;;15.73;12.43;;;15.60;99.90;;;;;;5081353;28;20048;-77
2023/04/23 09:55:30;;;;;;;14.48;12.13;;;15.60;99.90;;;;;;5084551;28;20724;-78
2023/04/23 09:57:56;;;;;;;14.48;12.32;;;15.70;99.90;;;;;;5066211;28;20071;-80
2023/04/23 10:00:24;;;;;;;14.33;11.27;;;15.80;99.90;;;;;;5079862;28;20052;-76
2023/04/23 10:02:51;;;;;;;14.75;11.13;;;15.90;99.90;;;;;;5076144;28;20319;-76
2023/04/23 10:05:18;;;;;;;12.15;10.00;;;16.00;99.90;;;;;;5065018;28;20724;-76
2023/04/23 10:07:45;;;;;;;11.52;9.75;;;16.10;99.90;;;;;;5089355;28;20624;-75
2023/04/23 10:10:12;;;;;;;13.02;11.63;;;16.20;99.90;;;;;;5088715;28;20068;-76
2023/04/23 10:12:38;;;;;;;11.82;9.40;;;16.30;99.90;;;;;;5088315;28;20048;-76
2023/04/23 10:15:06;;;;;;;13.00;10.80;;;16.30;99.90;;;;;;5068094;28;20036;-76
2023/04/23 10:17:33;;;;;;;11.75;9.52;;;16.30;99.90;;;;;;5087811;28;20039;-77
2023/04/23 10:20:00;;;;;;;10.77;7.20;;;16.30;99.90;;;;;;5081934;28;20036;-75
2023/04/23 10:22:28;;;;;;;9.93;7.40;;;16.30;99.90;;;;;;5063075;28;20085;-74
2023/04/23 10:24:57;;;;;;;9.45;7.38;;;16.40;99.90;;;;;;5086039;28;20040;-75
2023/04/23 10:27:27;;;;;;;11.38;8.45;;;16.40;99.90;;;;;;5080163;28;20122;-75
2023/04/23 10:29:53;;;;;;;10.40;9.07;;;16.40;99.90;;;;;;5088551;28;20124;-74
2023/04/23 10:32:20;;;;;;;11.32;7.07;;;16.40;99.90;;;;;;5079851;28;20040;-76
2023/04/23 10:34:46;;;;;;;9.75;6.18;;;16.40;99.90;;;;;;5080863;28;20045;-76
2023/04/23 10:37:14;;;;;;;10.53;6.80;;;16.40;99.90;;;;;;5105251;28;20048;-77
2023/04/23 10:39:43;;;;;;;9.55;7.15;;;16.50;99.90;;;;;;5070386;28;20622;-75
2023/04/23 10:42:09;;;;;;;8.13;6.57;;;16.60;99.90;;;;;;5077273;28;20036;-76
2023/04/23 10:44:41;;;;;;;9.25;6.38;;;16.70;99.90;;;;;;5088726;28;20123;-79
2023/04/23 10:47:14;;;;;;;11.15;6.65;;;16.80;99.90;;;;;;5080176;28;20093;-74
2023/04/23 10:49:40;;;;;;;9.68;6.65;;;16.80;99.90;;;;;;5086634;28;20048;-75
2023/04/23 10:52:14;;;;;;;10.65;7.45;;;16.90;99.90;;;;;;5082731;28;20039;-75
2023/04/23 10:54:41;;;;;;;9.00;5.18;;;17.10;99.90;;;;;;5081897;28;20043;-74
2023/04/23 10:57:08;;;;;;;7.43;5.10;;;17.10;99.90;;;;;;5088850;28;20044;-77
2023/04/23 10:59:37;;;;;;;6.88;4.55;;;17.20;99.90;;;;;;5098366;27;20514;-79
2023/04/23 11:02:07;;;;;;;7.32;4.50;;;17.20;99.90;;;;;;5083387;28;20105;-73
2023/04/23 11:04:35;;;;;;;7.38;4.00;;;17.20;99.90;;;;;;5083466;28;20131;-74
2023/04/23 11:07:05;;;;;;;;;;;17.20;99.90;;;;;;5065958;28;20047;-72
2023/04/23 11:09:33;;;;;;;9.32;5.07;;;17.10;99.90;;;;;;5100869;28;19955;-75
2023/04/23 11:12:01;;;;;;;6.43;3.67;;;17.10;99.90;;;;;;5062387;28;20059;-75
2023/04/23 11:14:41;;;;;;;5.85;2.80;;;17.10;99.90;;;;;;5072033;28;20047;-77
2023/04/23 11:17:12;;;;;;;6.22;2.63;;;17.20;99.90;;;;;;5061717;28;20064;-76
2023/04/23 11:19:39;;;;;;;7.55;3.40;;;17.20;99.90;;;;;;5079969;28;20055;-75
2023/04/23 11:22:17;;;;;;;6.88;2.85;;;17.20;99.90;;;;;;5083646;28;20557;-75
2023/04/23 11:24:44;;;;;;;7.57;3.28;;;17.20;99.90;;;;;;5082575;28;20051;-73
2023/04/23 11:27:11;;;;;;;7.68;3.25;;;17.20;99.90;;;;;;5079306;28;20038;-74
2023/04/23 11:29:39;;;;;;;6.60;3.70;;;17.30;99.90;;;;;;5083196;28;20131;-76
2023/04/23 11:32:12;;;;;;;9.45;4.00;;;17.40;99.90;;;;;;5087069;28;20024;-75
2023/04/23 11:34:46;;;;;;;13.25;8.63;;;17.50;99.90;;;;;;5082417;28;20072;-72
2023/04/23 11:37:16;;;;;;;5.22;3.05;;;17.60;99.90;;;;;;5081978;28;20076;-75
2023/04/23 11:39:44;;;;;;;6.30;2.83;;;17.60;99.90;;;;;;5065781;28;20392;-73
2023/04/23 11:42:14;;;;;;;6.32;3.53;;;17.60;99.90;;;;;;5086451;28;20121;-72
2023/04/23 11:44:41;;;;;;;5.30;2.60;;;17.50;99.90;;;;;;5062758;28;20080;-72
2023/04/23 11:47:09;;;;;;;8.98;2.75;;;17.50;99.90;;;;;;5085412;28;20048;-73
2023/04/23 11:49:39;;;;;;;7.30;2.65;;;17.50;99.40;;;;;;5080523;28;20051;-71
2023/04/23 11:52:05;;;;;;;7.50;2.55;;;17.50;99.10;;;;;;5085662;28;20036;-72
2023/04/23 11:54:33;;;;;;;7.40;2.90;;;17.60;97.50;;;;;;5085997;28;20039;-73
2023/04/23 11:57:00;;;;;;;7.80;2.80;;;17.60;97.10;;;;;;5085616;28;20047;-72
2023/04/23 11:59:26;;;;;;;4.25;2.30;;;17.70;96.80;;;;;;5081857;28;20051;-74
2023/04/23 12:01:56;;;;;;;6.95;2.55;;;17.70;97.00;;;;;;5085084;28;20680;-74
2023/04/23 12:04:24;;;;;;;7.38;2.70;;;17.90;97.30;;;;;;5084295;28;20040;-74
2023/04/23 12:06:51;;;;;;;6.50;2.70;;;18.10;95.90;;;;;;5084928;28;20144;-72
2023/04/23 12:09:18;;;;;;;6.65;2.40;;;18.30;95.40;;;;;;5067073;28;20048;-72
2023/04/23 12:11:45;;;;;;;10.20;3.15;;;18.40;94.40;;;;;;5084088;28;20044;-73
2023/04/23 12:14:13;;;;;;;7.72;2.28;;;18.40;91.90;;;;;;5086832;28;20036;-72
2023/04/23 12:16:44;;;;;;;5.57;2.60;;;18.30;85.10;;;;;;5082648;28;20418;-72
2023/04/23 12:19:13;;;;;;;8.07;2.17;;;18.40;84.70;;;;;;5079616;28;20075;-73
2023/04/23 12:22:01;;;;;;;9.48;2.90;;;18.40;84.80;;;;;;5085254;28;20744;-73
2023/04/23 12:24:44;;;;;;;6.85;3.20;;;18.50;86.60;;;;;;5083589;28;20044;-69
2023/04/23 12:27:18;;;;;;;7.10;2.78;;;18.60;88.20;;;;;;5057689;28;20051;-72
2023/04/23 12:29:46;;;;;;;7.70;2.88;;;18.70;86.20;;;;;;5080313;28;20122;-74
2023/04/23 12:32:15;;;;;;;5.63;2.42;;;18.70;85.80;;;;;;5056280;28;20093;-72
2023/04/23 12:34:54;;;;;;;9.82;2.90;;;18.70;84.40;;;;;;5075006;28;20109;-74
2023/04/23 12:37:29;;;;;;;5.55;2.45;;;18.70;82.30;;;;;;5078147;28;20114;-73